createdAt,value
2023-01-30T00:01:46.056Z,40.43
2023-01-30T00:04:17.114Z,47.27
2023-01-30T00:06:45.437Z,43.77
2023-01-30T00:09:15.738Z,39.27
2023-01-30T00:11:45.069Z,35.70
2023-01-30T00:14:13.049Z,33.90
2023-01-30T00:16:42.079Z,33.50
2023-01-30T00:19:10.317Z,33.03
2023-01-30T00:21:38.283Z,33.87
2023-01-30T00:24:06.741Z,32.50
2023-01-30T00:26:34.711Z,33.87
2023-01-30T00:29:04.063Z,36.50
2023-01-30T00:31:32.103Z,33.57
2023-01-30T00:34:00.104Z,34.30
2023-01-30T00:36:28.050Z,31.60
2023-01-30T00:38:59.652Z,32.00
2023-01-30T00:41:48.204Z,31.33
2023-01-30T00:44:34.948Z,24.90
2023-01-30T00:47:06.231Z,26.60
2023-01-30T00:49:34.497Z,29.10
2023-01-30T00:52:02.771Z,26.77
2023-01-30T00:54:30.776Z,25.70
2023-01-30T00:56:58.763Z,26.70
2023-01-30T00:59:28.438Z,25.13
2023-01-30T01:01:56.501Z,25.87
2023-01-30T01:04:24.499Z,25.40
2023-01-30T01:06:52.779Z,27.93
2023-01-30T01:09:20.733Z,25.50
2023-01-30T01:11:48.690Z,27.03
2023-01-30T01:14:16.629Z,24.63
2023-01-30T01:16:46.078Z,29.37
2023-01-30T01:19:14.017Z,28.27
2023-01-30T01:21:42.007Z,30.47
2023-01-30T01:24:14.322Z,26.83
2023-01-30T01:26:42.934Z,26.77
2023-01-30T01:29:13.730Z,28.80
2023-01-30T01:31:41.906Z,29.03
2023-01-30T01:34:11.577Z,28.20
2023-01-30T01:36:53.326Z,28.67
2023-01-30T01:39:22.973Z,26.07
2023-01-30T01:41:50.021Z,25.63
2023-01-30T01:44:18.029Z,25.50
2023-01-30T01:46:49.910Z,26.10
2023-01-30T01:49:23.362Z,26.13
2023-01-30T01:51:55.734Z,24.83
2023-01-30T01:54:30.674Z,24.33
2023-01-30T01:57:00.550Z,24.27
2023-01-30T01:59:33.529Z,25.27
2023-01-30T02:02:07.352Z,25.63
2023-01-30T02:05:12.081Z,28.43
2023-01-30T02:07:44.825Z,26.20
2023-01-30T02:10:18.917Z,27.43
2023-01-30T02:12:47.784Z,24.27
2023-01-30T02:15:15.910Z,27.50
2023-01-30T02:17:44.027Z,26.20
2023-01-30T02:20:24.026Z,25.47
2023-01-30T02:23:16.412Z,26.77
2023-01-30T02:26:06.421Z,26.27
2023-01-30T02:28:49.630Z,23.57
2023-01-30T02:31:31.916Z,24.83
2023-01-30T02:34:12.659Z,24.33
2023-01-30T02:36:52.784Z,25.27
2023-01-30T02:39:32.425Z,26.47
2023-01-30T02:42:08.894Z,23.10
2023-01-30T02:44:46.101Z,29.23
2023-01-30T02:47:20.321Z,26.77
2023-01-30T02:49:53.352Z,24.27
2023-01-30T02:52:22.981Z,28.30
2023-01-30T02:54:50.947Z,25.43
2023-01-30T02:57:21.671Z,23.50
2023-01-30T02:59:53.750Z,21.47
2023-01-30T03:02:52.005Z,24.73
2023-01-30T03:05:31.286Z,22.47
2023-01-30T03:08:08.256Z,22.70
2023-01-30T03:10:40.643Z,23.90
2023-01-30T03:13:16.085Z,25.60
2023-01-30T03:15:51.010Z,20.77
2023-01-30T03:18:21.682Z,21.70
2023-01-30T03:20:49.999Z,19.57
2023-01-30T03:23:17.982Z,22.47
2023-01-30T03:25:46.960Z,21.13
2023-01-30T03:28:17.837Z,19.07
2023-01-30T03:30:45.866Z,19.57
2023-01-30T03:33:13.884Z,21.20
2023-01-30T03:35:43.546Z,19.13
2023-01-30T03:38:12.020Z,18.53
2023-01-30T03:40:40.317Z,20.93
2023-01-30T03:43:08.252Z,18.97
2023-01-30T03:45:36.553Z,17.47
2023-01-30T03:48:04.600Z,19.30
2023-01-30T03:50:32.564Z,19.93
2023-01-30T03:53:01.902Z,21.03
2023-01-30T03:55:29.864Z,19.57
2023-01-30T03:57:58.535Z,26.50
2023-01-30T04:00:26.697Z,20.83
2023-01-30T04:02:54.905Z,20.27
2023-01-30T04:05:22.947Z,19.67
2023-01-30T04:07:51.409Z,24.10
2023-01-30T04:10:20.892Z,21.17
2023-01-30T04:12:48.852Z,18.70
2023-01-30T04:15:17.380Z,19.17
2023-01-30T04:17:45.787Z,18.70
2023-01-30T04:20:13.919Z,20.67
2023-01-30T04:22:41.905Z,19.97
2023-01-30T04:25:10.607Z,18.37
2023-01-30T04:27:39.965Z,23.47
2023-01-30T04:30:09.673Z,20.43
2023-01-30T04:32:37.630Z,20.70
2023-01-30T04:35:06.183Z,23.43
2023-01-30T04:37:34.185Z,22.23
2023-01-30T04:40:02.125Z,18.87
2023-01-30T04:42:30.142Z,18.77
2023-01-30T04:44:59.422Z,20.73
2023-01-30T04:47:27.411Z,20.00
2023-01-30T04:49:55.643Z,22.20
2023-01-30T04:52:23.604Z,20.63
2023-01-30T04:54:51.569Z,20.47
2023-01-30T04:57:19.520Z,20.00
2023-01-30T04:59:47.468Z,19.20
2023-01-30T05:02:16.864Z,20.10
2023-01-30T05:04:44.877Z,25.23
2023-01-30T05:07:12.847Z,21.33
2023-01-30T05:09:40.764Z,20.53
2023-01-30T05:12:08.884Z,23.93
2023-01-30T05:14:36.859Z,22.10
2023-01-30T05:17:04.821Z,22.83
2023-01-30T05:19:34.139Z,25.97
2023-01-30T05:22:02.073Z,21.10
2023-01-30T05:24:30.105Z,21.17
2023-01-30T05:26:58.040Z,25.27
2023-01-30T05:29:25.994Z,23.00
2023-01-30T05:31:53.934Z,22.03
2023-01-30T05:34:21.985Z,25.23
2023-01-30T05:36:51.332Z,26.27
2023-01-30T05:39:19.274Z,26.77
2023-01-30T05:41:47.263Z,27.80
2023-01-30T05:44:15.232Z,23.17
2023-01-30T05:46:43.334Z,25.23
2023-01-30T05:49:11.307Z,22.37
2023-01-30T05:51:39.277Z,26.47
2023-01-30T05:54:08.652Z,23.20
2023-01-30T05:56:36.663Z,24.30
2023-01-30T05:59:05.065Z,24.17
2023-01-30T06:01:33.423Z,24.80
2023-01-30T06:04:01.752Z,26.33
2023-01-30T06:06:29.942Z,27.40
2023-01-30T06:08:58.023Z,26.87
2023-01-30T06:11:27.885Z,27.83
2023-01-30T06:13:55.910Z,29.70
2023-01-30T06:16:24.226Z,27.30
2023-01-30T06:18:52.339Z,26.67
2023-01-30T06:21:20.288Z,25.33
2023-01-30T06:23:48.385Z,24.47
2023-01-30T06:26:17.000Z,24.00
2023-01-30T06:28:47.155Z,28.47
2023-01-30T06:31:16.666Z,26.33
2023-01-30T06:33:45.537Z,25.23
2023-01-30T06:36:14.665Z,25.57
2023-01-30T06:38:42.766Z,24.43
2023-01-30T06:41:11.488Z,22.93
2023-01-30T06:43:39.903Z,24.00
2023-01-30T06:46:10.189Z,26.80
2023-01-30T06:48:38.505Z,25.57
2023-01-30T06:51:07.299Z,25.03
2023-01-30T06:53:35.467Z,27.27
2023-01-30T06:56:03.621Z,22.87
2023-01-30T06:58:31.841Z,25.77
2023-01-30T07:00:59.906Z,23.67
2023-01-30T07:03:32.335Z,23.87
2023-01-30T07:06:00.300Z,27.37
2023-01-30T07:08:28.323Z,26.70
2023-01-30T07:10:56.607Z,24.83
2023-01-30T07:13:24.740Z,26.33
2023-01-30T07:15:52.736Z,28.83
2023-01-30T07:18:20.653Z,25.93
2023-01-30T07:20:50.779Z,27.10
2023-01-30T07:23:18.987Z,28.93
2023-01-30T07:25:47.167Z,27.27
2023-01-30T07:28:15.129Z,25.93
2023-01-30T07:30:43.106Z,26.87
2023-01-30T07:33:11.188Z,29.10
2023-01-30T07:35:39.353Z,30.23
2023-01-30T07:38:08.806Z,29.20
2023-01-30T07:40:37.113Z,30.00
2023-01-30T07:43:06.701Z,25.80
2023-01-30T07:45:39.245Z,26.43
2023-01-30T07:48:07.669Z,29.73
2023-01-30T07:50:35.972Z,25.53
2023-01-30T07:53:05.648Z,28.33
2023-01-30T07:55:36.070Z,27.10
2023-01-30T07:58:04.842Z,25.33
2023-01-30T08:00:34.507Z,26.00
2023-01-30T08:03:02.569Z,26.63
2023-01-30T08:05:30.556Z,29.57
2023-01-30T08:07:58.553Z,28.80
2023-01-30T08:10:26.516Z,26.70
2023-01-30T08:12:55.994Z,25.87
2023-01-30T08:15:24.143Z,27.40
2023-01-30T08:17:56.275Z,28.37
2023-01-30T08:20:24.273Z,28.67
2023-01-30T08:22:52.373Z,26.87
2023-01-30T08:25:21.031Z,26.50
2023-01-30T08:27:49.100Z,29.60
2023-01-30T08:30:20.201Z,23.10
2023-01-30T08:32:48.693Z,24.20
2023-01-30T08:35:16.815Z,26.23
2023-01-30T08:37:45.023Z,25.63
2023-01-30T08:40:14.249Z,28.37
2023-01-30T08:42:44.479Z,28.80
2023-01-30T08:45:13.075Z,33.97
2023-01-30T08:47:42.435Z,26.23
2023-01-30T08:50:11.817Z,27.63
2023-01-30T08:52:39.881Z,28.97
2023-01-30T08:55:09.465Z,24.23
2023-01-30T08:57:37.752Z,29.17
2023-01-30T09:00:07.537Z,28.97
2023-01-30T09:02:35.611Z,27.67
2023-01-30T09:05:06.249Z,25.17
2023-01-30T09:07:34.367Z,25.87
2023-01-30T09:10:02.342Z,23.03
2023-01-30T09:12:30.306Z,28.10
2023-01-30T09:15:00.471Z,25.63
2023-01-30T09:17:28.457Z,31.17
2023-01-30T09:19:56.401Z,25.70
2023-01-30T09:22:28.842Z,25.67
2023-01-30T09:24:56.834Z,26.97
2023-01-30T09:27:25.362Z,26.70
2023-01-30T09:29:53.988Z,28.10
2023-01-30T09:32:22.186Z,24.47
2023-01-30T09:34:50.227Z,24.83
2023-01-30T09:37:18.462Z,38.73
2023-01-30T09:39:48.255Z,25.47
2023-01-30T09:42:46.492Z,27.37
2023-01-30T09:45:28.086Z,29.03
2023-01-30T09:48:04.692Z,27.90
2023-01-30T09:50:54.418Z,32.50
2023-01-30T09:53:31.354Z,27.03
2023-01-30T09:56:01.771Z,27.33
2023-01-30T09:58:42.895Z,26.00
2023-01-30T10:01:20.596Z,25.60
2023-01-30T10:04:00.917Z,28.20
2023-01-30T10:06:29.041Z,28.90
2023-01-30T10:09:04.263Z,30.27
2023-01-30T10:11:48.025Z,28.87
2023-01-30T10:14:40.730Z,32.97
2023-01-30T10:17:24.849Z,29.73
2023-01-30T10:20:08.325Z,32.37
2023-01-30T10:22:46.810Z,31.37
2023-01-30T10:25:25.762Z,33.90
2023-01-30T10:28:00.521Z,35.50
2023-01-30T10:30:28.920Z,32.27
2023-01-30T10:33:02.254Z,37.47
2023-01-30T10:35:35.141Z,30.57
2023-01-30T10:38:13.447Z,33.67
2023-01-30T10:40:45.172Z,35.93
2023-01-30T10:43:21.047Z,33.83
2023-01-30T10:45:57.646Z,33.10
2023-01-30T10:48:52.780Z,32.93
2023-01-30T10:51:30.464Z,29.37
2023-01-30T10:54:03.518Z,29.57
2023-01-30T10:56:37.366Z,30.13
2023-01-30T10:59:22.622Z,29.43
2023-01-30T11:01:58.521Z,33.13
2023-01-30T11:04:33.874Z,28.70
2023-01-30T11:07:03.062Z,34.77
2023-01-30T11:09:42.113Z,32.90
2023-01-30T11:12:10.276Z,30.17
2023-01-30T11:15:00.336Z,34.10
2023-01-30T11:17:35.133Z,33.03
2023-01-30T11:20:08.714Z,31.67
2023-01-30T11:22:38.053Z,32.10
2023-01-30T11:25:12.300Z,29.30
2023-01-30T11:27:44.377Z,30.03
2023-01-30T11:30:23.470Z,33.30
2023-01-30T11:32:51.747Z,29.97
2023-01-30T11:35:29.186Z,33.73
2023-01-30T11:38:13.694Z,33.30
2023-01-30T11:40:41.910Z,29.27
2023-01-30T11:43:15.013Z,30.47
2023-01-30T11:45:48.989Z,33.73
2023-01-30T11:48:34.065Z,33.37
2023-01-30T11:51:11.290Z,30.03
2023-01-30T11:53:42.535Z,31.60
2023-01-30T11:56:17.278Z,33.00
2023-01-30T11:58:49.800Z,29.40
2023-01-30T12:01:19.337Z,28.40
2023-01-30T12:03:50.376Z,32.63
2023-01-30T12:06:29.624Z,27.07
2023-01-30T12:08:58.966Z,33.37
2023-01-30T12:11:30.585Z,28.17
2023-01-30T12:14:13.003Z,33.70
2023-01-30T12:16:52.614Z,32.30
2023-01-30T12:19:32.380Z,36.47
2023-01-30T12:22:07.620Z,33.17
2023-01-30T12:24:43.364Z,32.83
2023-01-30T12:27:20.346Z,32.23
2023-01-30T12:29:59.939Z,34.20
2023-01-30T12:32:32.707Z,34.50
2023-01-30T12:35:01.076Z,29.37
2023-01-30T12:37:44.114Z,31.17
2023-01-30T12:40:25.040Z,37.83
2023-01-30T12:43:15.094Z,34.67
2023-01-30T12:45:52.423Z,39.00
2023-01-30T12:48:48.170Z,35.80
2023-01-30T12:51:31.486Z,41.97
2023-01-30T12:54:07.034Z,40.17
2023-01-30T12:56:58.833Z,36.00
2023-01-30T12:59:37.362Z,37.47
2023-01-30T13:02:30.443Z,37.20
2023-01-30T13:05:21.291Z,36.57
2023-01-30T13:08:18.690Z,38.43
2023-01-30T13:10:52.471Z,41.97
2023-01-30T13:13:30.354Z,37.87
2023-01-30T13:16:05.380Z,45.03
2023-01-30T13:18:41.245Z,36.70
2023-01-30T13:21:16.356Z,37.97
2023-01-30T13:23:55.295Z,40.97
2023-01-30T13:26:31.341Z,39.93
2023-01-30T13:29:03.339Z,38.13
2023-01-30T13:31:33.963Z,43.27
2023-01-30T13:34:07.041Z,36.10
2023-01-30T13:36:43.365Z,42.43
2023-01-30T13:41:54.098Z,40.27
2023-01-30T13:44:26.001Z,37.87
2023-01-30T13:46:55.344Z,41.80
2023-01-30T13:49:30.604Z,38.30
2023-01-30T13:52:08.895Z,39.53
2023-01-30T13:54:53.577Z,33.50
2023-01-30T13:57:32.297Z,33.73
2023-01-30T14:00:25.842Z,34.37
2023-01-30T14:03:16.651Z,32.77
2023-01-30T14:06:04.978Z,32.47
2023-01-30T14:08:42.247Z,36.83
2023-01-30T14:11:36.199Z,36.07
2023-01-30T14:14:08.016Z,38.33
2023-01-30T14:16:48.395Z,39.90
2023-01-30T14:19:36.117Z,37.00
2023-01-30T14:22:18.215Z,36.83
2023-01-30T14:25:26.332Z,36.40
2023-01-30T14:27:56.321Z,38.10
2023-01-30T14:30:38.659Z,34.20
2023-01-30T14:33:36.140Z,38.33
2023-01-30T14:36:36.578Z,37.37
2023-01-30T14:39:39.967Z,33.83
2023-01-30T14:42:25.538Z,40.33
2023-01-30T14:44:58.850Z,40.17
2023-01-30T14:47:34.483Z,42.47
2023-01-30T14:50:23.455Z,45.33
2023-01-30T14:52:56.585Z,38.57
2023-01-30T14:55:29.481Z,40.57
2023-01-30T14:57:59.879Z,33.83
2023-01-30T15:00:32.224Z,38.27
2023-01-30T15:03:03.300Z,29.93
2023-01-30T15:05:35.995Z,34.33
2023-01-30T15:08:09.327Z,37.10
2023-01-30T15:11:03.302Z,34.37
2023-01-30T15:13:47.598Z,34.00
2023-01-30T15:16:35.154Z,32.37
2023-01-30T15:19:15.670Z,29.17
2023-01-30T15:21:57.538Z,31.03
2023-01-30T15:24:51.653Z,28.10
2023-01-30T15:27:29.122Z,30.67
2023-01-30T15:30:17.418Z,33.37
2023-01-30T15:32:46.168Z,32.33
2023-01-30T15:35:25.570Z,29.93
2023-01-30T15:37:56.255Z,33.23
2023-01-30T15:40:26.674Z,32.37
2023-01-30T15:43:07.915Z,36.27
2023-01-30T15:45:45.067Z,40.77
2023-01-30T15:48:42.439Z,42.30
2023-01-30T15:51:14.271Z,39.97
2023-01-30T15:53:46.666Z,43.23
2023-01-30T15:56:20.730Z,38.60
2023-01-30T15:58:49.179Z,36.97
2023-01-30T16:01:21.470Z,35.33
2023-01-30T16:03:51.109Z,35.73
2023-01-30T16:06:32.666Z,37.70
2023-01-30T16:09:04.044Z,36.63
2023-01-30T16:11:37.791Z,36.10
2023-01-30T16:14:06.702Z,37.93
2023-01-30T16:16:36.508Z,39.60
2023-01-30T16:19:09.127Z,52.17
2023-01-30T16:21:40.108Z,53.97
2023-01-30T16:24:16.334Z,58.50
2023-01-30T16:26:47.463Z,50.07
2023-01-30T16:29:17.283Z,43.27
2023-01-30T16:31:47.809Z,39.63
2023-01-30T16:34:33.515Z,37.13
2023-01-30T16:37:07.717Z,43.07
2023-01-30T16:39:38.301Z,42.13
2023-01-30T16:42:23.631Z,43.60
2023-01-30T16:44:51.649Z,35.27
2023-01-30T16:47:25.895Z,42.37
2023-01-30T16:49:55.709Z,39.60
2023-01-30T16:52:25.882Z,39.07
2023-01-30T16:54:57.773Z,40.63
2023-01-30T16:57:33.318Z,41.37
2023-01-30T17:00:01.697Z,37.80
2023-01-30T17:02:35.085Z,36.73
2023-01-30T17:05:18.298Z,38.37
2023-01-30T17:07:46.676Z,39.77
2023-01-30T17:10:52.470Z,37.60
2023-01-30T17:13:37.214Z,35.00
2023-01-30T17:16:27.424Z,37.73
2023-01-30T17:18:58.206Z,39.83
2023-01-30T17:21:29.046Z,42.17
2023-01-30T17:24:00.862Z,45.43
2023-01-30T17:26:31.500Z,43.77
2023-01-30T17:28:59.902Z,47.10
2023-01-30T17:31:28.136Z,48.20
2023-01-30T17:33:56.182Z,50.43
2023-01-30T17:36:27.989Z,50.67
2023-01-30T17:38:56.794Z,44.10
2023-01-30T17:41:28.491Z,47.33
2023-01-30T17:43:57.881Z,51.87
2023-01-30T17:46:34.657Z,45.40
2023-01-30T17:49:02.954Z,47.90
2023-01-30T17:51:31.023Z,43.63
2023-01-30T17:53:59.060Z,45.83
2023-01-30T17:56:32.105Z,47.67
2023-01-30T17:59:01.469Z,42.30
2023-01-30T18:01:29.439Z,41.57
2023-01-30T18:03:57.428Z,37.37
2023-01-30T18:06:27.188Z,40.63
2023-01-30T18:08:55.143Z,37.07
2023-01-30T18:11:23.540Z,35.83
2023-01-30T18:13:51.564Z,38.77
2023-01-30T18:16:24.394Z,44.07
2023-01-30T18:18:52.605Z,35.57
2023-01-30T18:21:22.119Z,34.77
2023-01-30T18:23:50.184Z,32.70
2023-01-30T18:26:18.906Z,33.10
2023-01-30T18:28:47.153Z,31.27
2023-01-30T18:31:15.668Z,30.53
2023-01-30T18:33:45.677Z,30.13
2023-01-30T18:36:15.535Z,33.03
2023-01-30T18:38:43.982Z,34.20
2023-01-30T18:41:14.029Z,31.57
2023-01-30T18:43:42.502Z,33.77
2023-01-30T18:46:13.249Z,36.57
2023-01-30T18:48:41.765Z,34.60
2023-01-30T18:51:13.311Z,32.10
2023-01-30T18:53:41.588Z,30.80
2023-01-30T18:56:10.684Z,31.47
2023-01-30T18:58:40.063Z,31.23
2023-01-30T19:01:12.400Z,33.90
2023-01-30T19:03:40.509Z,31.70
2023-01-30T19:06:11.846Z,32.33
2023-01-30T19:08:40.087Z,37.10
2023-01-30T19:11:23.703Z,33.67
2023-01-30T19:13:51.666Z,37.17
2023-01-30T19:16:20.331Z,29.40
2023-01-30T19:18:49.591Z,33.50
2023-01-30T19:21:18.984Z,35.27
2023-01-30T19:23:47.176Z,31.80
2023-01-30T19:26:15.215Z,31.63
2023-01-30T19:28:44.716Z,37.03
2023-01-30T19:31:14.806Z,34.83
2023-01-30T19:33:43.546Z,34.17
2023-01-30T19:36:12.843Z,31.47
2023-01-30T19:38:42.754Z,34.13
2023-01-30T19:41:12.705Z,32.30
2023-01-30T19:43:41.120Z,35.10
2023-01-30T19:46:10.914Z,35.47
2023-01-30T19:48:41.219Z,41.83
2023-01-30T19:51:14.561Z,37.10
2023-01-30T19:53:45.908Z,32.70
2023-01-30T19:56:15.562Z,33.50
2023-01-30T19:58:43.975Z,33.50
2023-01-30T20:01:15.689Z,27.83
2023-01-30T20:03:44.076Z,28.63
2023-01-30T20:06:13.968Z,29.27
2023-01-30T20:08:44.214Z,32.80
2023-01-30T20:11:13.972Z,33.80
2023-01-30T20:13:43.680Z,32.27
2023-01-30T20:16:13.670Z,32.77
2023-01-30T20:18:42.323Z,31.77
2023-01-30T20:21:12.276Z,31.03
2023-01-30T20:23:41.262Z,35.83
2023-01-30T20:26:12.864Z,26.87
2023-01-30T20:28:41.296Z,27.80
2023-01-30T20:31:11.735Z,21.10
2023-01-30T20:33:40.125Z,22.33
2023-01-30T20:36:10.789Z,24.60
2023-01-30T20:38:41.016Z,25.27
2023-01-30T20:41:12.612Z,22.37
2023-01-30T20:43:42.130Z,17.73
2023-01-30T20:46:12.205Z,14.50
2023-01-30T20:48:40.969Z,22.60
2023-01-30T20:51:10.417Z,20.10
2023-01-30T20:53:39.600Z,18.07
2023-01-30T20:56:10.499Z,18.03
2023-01-30T20:58:40.060Z,17.33
2023-01-30T21:01:09.750Z,16.50
2023-01-30T21:03:38.272Z,16.67
2023-01-30T21:06:06.718Z,15.47
2023-01-30T21:08:34.828Z,16.43
2023-01-30T21:11:07.575Z,18.97
2023-01-30T21:13:36.209Z,16.30
2023-01-30T21:16:08.105Z,14.93
2023-01-30T21:18:38.457Z,14.70
2023-01-30T21:21:07.047Z,19.40
2023-01-30T21:23:36.930Z,24.17
2023-01-30T21:26:06.861Z,26.07
2023-01-30T21:28:34.886Z,20.47
2023-01-30T21:31:09.092Z,18.07
2023-01-30T21:33:37.125Z,20.13
2023-01-30T21:36:05.745Z,25.93
2023-01-30T21:38:51.257Z,24.13
2023-01-30T21:41:39.209Z,24.07
2023-01-30T21:44:07.721Z,27.77
2023-01-30T21:46:40.440Z,20.40
2023-01-30T21:49:08.772Z,25.63
2023-01-30T21:51:37.708Z,27.43
2023-01-30T21:54:06.024Z,16.93
2023-01-30T21:56:34.006Z,25.17
2023-01-30T21:59:04.049Z,24.37
2023-01-30T22:01:32.568Z,28.10
2023-01-30T22:04:03.132Z,23.57
2023-01-30T22:06:31.737Z,27.17
2023-01-30T22:09:01.115Z,25.37
2023-01-30T22:11:30.135Z,21.00
2023-01-30T22:13:58.813Z,22.80
2023-01-30T22:16:29.277Z,23.67
2023-01-30T22:18:59.300Z,24.50
2023-01-30T22:21:30.349Z,23.70
2023-01-30T22:23:58.466Z,27.17
2023-01-30T22:26:27.694Z,23.80
2023-01-30T22:28:57.058Z,26.20
2023-01-30T22:31:26.267Z,23.00
2023-01-30T22:33:55.960Z,20.70
2023-01-30T22:36:25.973Z,27.83
2023-01-30T22:38:55.855Z,26.03
2023-01-30T22:41:26.131Z,21.23
2023-01-30T22:43:55.830Z,24.73
2023-01-30T22:46:26.559Z,27.80
2023-01-30T22:48:54.919Z,25.80
2023-01-30T22:51:24.119Z,24.90
2023-01-30T22:53:53.636Z,24.73
2023-01-30T22:56:25.331Z,36.43
2023-01-30T22:58:53.335Z,18.07
2023-01-30T23:01:23.073Z,18.93
2023-01-30T23:03:54.822Z,17.60
2023-01-30T23:06:23.172Z,19.47
2023-01-30T23:08:51.979Z,15.57
2023-01-30T23:11:23.667Z,14.47
2023-01-30T23:13:53.597Z,18.23
2023-01-30T23:16:24.484Z,17.73
2023-01-30T23:18:58.804Z,21.87
2023-01-30T23:21:28.135Z,13.03
2023-01-30T23:24:00.309Z,16.67
2023-01-30T23:26:32.750Z,15.50
2023-01-30T23:29:02.643Z,16.67
2023-01-30T23:31:31.430Z,13.43
2023-01-30T23:34:01.392Z,13.17
2023-01-30T23:36:29.873Z,14.80
2023-01-30T23:38:59.516Z,15.07
2023-01-30T23:41:30.505Z,14.80
2023-01-30T23:43:59.749Z,17.80
2023-01-30T23:46:29.438Z,16.53
2023-01-30T23:48:59.278Z,18.43
2023-01-30T23:51:29.885Z,18.87
2023-01-30T23:53:58.528Z,16.00
2023-01-30T23:56:29.775Z,14.90
2023-01-30T23:58:58.023Z,17.53
